Time;durP1;ratioP1;P1;durP2;ratioP2;P2;SDS_P1;SDS_P2;PMS_P1;PMS_P2;Temp;Humidity;BMP_temperature;BMP_pressure;BME280_temperature;BME280_humidity;BME280_pressure;Samples;Min_cycle;Max_cycle;Signal;HPM_P1;HPM_P2
2022/06/05 00:07:42;;;;;;;8.77;7.60;;;20.20;95.50;;;;;;21094218;28;20645;-64
2022/06/05 00:17:44;;;;;;;8.10;7.33;;;20.20;95.40;;;;;;21094681;28;20586;-65
2022/06/05 00:27:56;;;;;;;13.27;7.53;;;20.10;95.40;;;;;;21092857;28;20245;-65
2022/06/05 00:38:09;;;;;;;11.67;8.27;;;20.00;95.30;;;;;;21092995;28;20266;-66
2022/06/05 00:48:12;;;;;;;10.53;8.30;;;19.90;95.30;;;;;;21091054;28;20244;-66
2022/06/05 00:58:15;;;;;;;9.03;8.13;;;19.80;95.40;;;;;;21091791;28;20258;-65
2022/06/05 01:08:17;;;;;;;9.77;8.63;;;19.70;95.50;;;;;;21088427;28;20235;-69
2022/06/05 01:18:44;;;;;;;10.60;8.00;;;19.60;95.60;;;;;;21088861;28;20260;-70
2022/06/05 01:28:54;;;;;;;9.83;8.00;;;19.50;95.70;;;;;;21088152;28;20239;-69
2022/06/05 01:39:06;;;;;;;9.07;8.20;;;19.40;95.90;;;;;;21086914;28;20272;-70
2022/06/05 01:49:27;;;;;;;11.10;8.57;;;19.30;96.10;;;;;;21086277;28;20208;-68
2022/06/05 01:59:42;;;;;;;9.10;8.30;;;19.30;96.20;;;;;;21067818;28;20239;-64
2022/06/05 02:09:50;;;;;;;9.60;8.17;;;19.20;96.40;;;;;;21084729;28;20609;-63
2022/06/05 02:19:52;;;;;;;9.00;8.17;;;19.10;96.60;;;;;;21083558;28;20239;-70
2022/06/05 02:29:56;;;;;;;9.53;8.60;;;19.10;96.80;;;;;;21083158;28;20766;-69
2022/06/05 02:40:19;;;;;;;10.13;9.13;;;18.90;96.90;;;;;;21082234;28;20238;-67
2022/06/05 02:50:32;;;;;;;10.00;9.00;;;18.80;97.10;;;;;;21081415;28;20578;-70
2022/06/05 03:00:36;;;;;;;10.43;8.93;;;18.80;97.30;;;;;;21080963;28;20654;-68
2022/06/05 03:10:38;;;;;;;14.47;10.17;;;18.70;97.20;;;;;;21079968;28;20245;-64
2022/06/05 03:20:40;;;;;;;12.83;9.93;;;18.70;97.30;;;;;;21079260;28;20229;-68
2022/06/05 03:30:42;;;;;;;10.87;9.77;;;18.70;97.40;;;;;;21078524;28;20323;-67
2022/06/05 03:40:45;;;;;;;11.17;10.07;;;18.60;97.50;;;;;;21078590;28;20246;-66
2022/06/05 03:50:47;;;;;;;11.07;10.03;;;18.70;97.50;;;;;;21078026;28;20216;-61
2022/06/05 04:00:51;;;;;;;12.10;10.47;;;18.70;97.50;;;;;;21078067;28;20226;-63
2022/06/05 04:10:53;;;;;;;10.90;9.80;;;18.70;97.40;;;;;;21077178;28;20226;-63
2022/06/05 04:20:54;;;;;;;11.30;10.03;;;18.80;97.40;;;;;;21076673;28;20759;-65
2022/06/05 04:30:56;;;;;;;11.80;10.60;;;18.90;97.40;;;;;;21076692;28;20646;-64
2022/06/05 04:40:58;;;;;;;11.17;10.00;;;18.90;97.30;;;;;;21085805;28;20231;-62
2022/06/05 04:51:04;;;;;;;11.47;10.37;;;19.00;97.60;;;;;;21091083;28;20212;-63
2022/06/05 05:01:16;;;;;;;13.83;12.33;;;19.10;97.20;;;;;;21092126;28;20236;-62
2022/06/05 05:11:18;;;;;;;11.60;10.40;;;19.10;97.20;;;;;;21072127;28;20207;-63
2022/06/05 05:21:22;;;;;;;11.30;10.20;;;19.20;97.20;;;;;;21091209;28;20252;-64
2022/06/05 05:31:28;;;;;;;10.50;9.30;;;19.30;97.10;;;;;;21090428;28;20286;-67
2022/06/05 05:51:50;;;;;;;13.53;10.40;;;19.50;97.20;;;;;;21085800;28;20240;-64
2022/06/05 06:01:52;;;;;;;13.23;11.83;;;19.60;97.20;;;;;;21085481;28;20236;-64
2022/06/05 06:11:53;;;;;;;13.40;11.80;;;19.70;97.20;;;;;;21084633;28;20204;-61
2022/06/05 06:21:55;;;;;;;11.73;10.60;;;19.70;97.20;;;;;;21083745;28;20251;-64
2022/06/05 06:31:57;;;;;;;12.43;11.13;;;19.70;97.20;;;;;;21083151;28;20296;-65
2022/06/05 06:41:58;;;;;;;11.90;10.70;;;19.80;97.20;;;;;;21064298;28;20236;-65
2022/06/05 06:52:01;;;;;;;13.40;12.10;;;19.90;97.20;;;;;;21081587;28;20695;-62
2022/06/05 07:02:03;;;;;;;14.27;12.70;;;19.90;97.20;;;;;;21079856;28;20243;-65
2022/06/05 07:12:05;;;;;;;15.10;11.50;;;19.90;97.30;;;;;;21080384;28;20213;-64
2022/06/05 07:22:07;;;;;;;12.70;11.40;;;19.90;97.60;;;;;;21079222;28;20241;-66
2022/06/05 07:32:09;;;;;;;13.13;11.77;;;19.90;97.80;;;;;;21078839;28;20230;-64
2022/06/05 07:42:11;;;;;;;14.67;12.20;;;19.90;98.00;;;;;;21060914;28;20264;-63
2022/06/05 08:02:35;;;;;;;13.90;12.00;;;19.80;98.80;;;;;;21077870;28;20291;-69
2022/06/05 08:12:36;;;;;;;12.80;11.60;;;19.80;99.20;;;;;;21085713;28;20639;-62
2022/06/05 08:22:38;;;;;;;14.07;11.63;;;19.80;99.80;;;;;;21094542;28;20232;-63
2022/06/05 08:32:40;;;;;;;14.87;12.20;;;19.80;99.70;;;;;;21092406;28;20630;-68
2022/06/05 08:43:07;;;;;;;15.17;12.13;;;19.90;99.90;;;;;;21074134;28;20237;-65
2022/06/05 08:53:30;;;;;;;13.27;11.97;;;19.90;99.90;;;;;;21091169;28;20217;-68
2022/06/05 09:03:40;;;;;;;12.20;11.00;;;20.00;99.90;;;;;;21090142;28;20242;-68
2022/06/05 09:13:50;;;;;;;12.40;11.17;;;20.10;99.90;;;;;;21089497;28;20212;-68
2022/06/05 09:24:12;;;;;;;12.63;11.33;;;20.10;99.90;;;;;;21069914;28;20326;-68
2022/06/05 09:34:19;;;;;;;11.73;10.63;;;20.20;99.90;;;;;;21087759;28;20204;-66
2022/06/05 09:44:53;;;;;;;14.53;10.83;;;20.30;99.90;;;;;;21087691;28;20232;-65
2022/06/05 09:55:16;;;;;;;12.37;11.07;;;20.40;99.90;;;;;;21045794;28;20266;-63
2022/06/05 10:05:26;;;;;;;11.20;10.10;;;20.50;99.90;;;;;;21085200;28;20240;-66
2022/06/05 10:15:39;;;;;;;10.33;9.23;;;20.50;99.90;;;;;;21085090;28;20276;-63
2022/06/05 10:26:24;;;;;;;9.70;8.70;;;20.60;99.90;;;;;;21083656;28;20280;-63
2022/06/05 10:36:32;;;;;;;9.60;8.70;;;20.60;99.90;;;;;;20827198;28;20213;-66
2022/06/05 10:46:37;;;;;;;9.37;8.47;;;20.60;99.90;;;;;;21081942;28;20247;-68
2022/06/05 10:57:10;;;;;;;9.97;8.93;;;20.70;99.90;;;;;;21081323;28;20283;-64
2022/06/05 11:07:28;;;;;;;9.83;8.90;;;20.60;99.90;;;;;;21080382;28;20260;-64
2022/06/05 11:17:48;;;;;;;10.10;9.10;;;20.70;99.90;;;;;;21079389;28;20664;-66
2022/06/05 11:28:28;;;;;;;9.70;8.70;;;20.80;99.90;;;;;;21079038;28;20238;-61
2022/06/05 11:38:42;;;;;;;8.77;7.87;;;21.20;99.90;;;;;;21027074;28;20206;-67
2022/06/05 11:49:00;;;;;;;7.83;7.03;;;21.40;99.90;;;;;;21077507;28;20234;-65
2022/06/05 11:59:20;;;;;;;9.13;7.10;;;21.70;99.90;;;;;;21078021;28;20359;-63
2022/06/05 12:09:28;;;;;;;7.50;6.30;;;22.00;99.90;;;;;;21077267;28;20636;-65
2022/06/05 12:19:53;;;;;;;6.73;6.03;;;22.10;99.90;;;;;;21076958;28;20665;-61
2022/06/05 12:30:06;;;;;;;6.57;5.93;;;22.30;99.90;;;;;;21076749;28;20239;-69
2022/06/05 12:40:17;;;;;;;6.47;5.87;;;22.60;99.70;;;;;;21075830;28;20244;-63
2022/06/05 12:50:48;;;;;;;6.43;5.30;;;22.70;99.40;;;;;;21075613;28;20209;-65
2022/06/05 13:01:08;;;;;;;7.60;5.40;;;23.00;99.10;;;;;;21083472;28;20234;-65
2022/06/05 13:11:17;;;;;;;8.87;5.27;;;23.10;98.90;;;;;;21090345;28;20710;-65
2022/06/05 13:21:52;;;;;;;6.10;5.07;;;23.20;98.60;;;;;;21088901;28;20294;-69
2022/06/05 13:32:16;;;;;;;8.13;4.67;;;23.40;98.40;;;;;;21087890;28;20231;-67
2022/06/05 13:42:40;;;;;;;7.13;4.10;;;23.40;98.20;;;;;;21088263;28;20288;-64
2022/06/05 13:52:41;;;;;;;6.27;4.30;;;23.30;98.30;;;;;;21086387;28;20209;-71
2022/06/05 14:02:45;;;;;;;6.60;3.80;;;23.30;97.90;;;;;;21085566;28;20253;-66
2022/06/05 14:13:00;;;;;;;4.57;3.80;;;23.30;98.00;;;;;;21084696;28;20210;-71
2022/06/05 14:23:04;;;;;;;5.10;3.67;;;23.30;98.00;;;;;;21084006;28;20637;-67
2022/06/05 14:33:12;;;;;;;6.23;2.93;;;23.20;98.00;;;;;;21083104;28;20323;-70
2022/06/05 14:43:25;;;;;;;4.83;2.50;;;23.30;97.90;;;;;;21082968;28;20234;-70
2022/06/05 14:53:43;;;;;;;4.53;2.70;;;23.40;97.50;;;;;;21082119;28;20238;-66
2022/06/05 15:04:08;;;;;;;4.57;2.77;;;23.50;97.40;;;;;;21080955;28;20275;-68
2022/06/05 15:14:29;;;;;;;6.87;3.30;;;23.50;97.20;;;;;;21065957;28;20634;-68
2022/06/05 15:24:51;;;;;;;4.87;3.30;;;23.60;96.90;;;;;;21078766;28;20246;-64
2022/06/05 15:35:26;;;;;;;7.17;3.33;;;23.70;96.80;;;;;;21080450;28;20236;-66
2022/06/05 15:46:06;;;;;;;4.50;3.10;;;23.70;96.80;;;;;;21085886;28;20238;-64
2022/06/05 15:56:41;;;;;;;2.70;1.50;;;23.70;96.90;;;;;;21076237;28;20202;-61
2022/06/05 16:06:57;;;;;;;2.03;1.50;;;23.60;96.20;;;;;;21077826;28;20230;-65
2022/06/05 16:17:24;;;;;;;6.70;2.20;;;23.60;95.50;;;;;;21077441;28;20259;-67
2022/06/05 16:27:46;;;;;;;5.13;2.13;;;23.60;95.00;;;;;;21077054;28;20291;-63
2022/06/05 16:37:54;;;;;;;6.63;2.00;;;23.70;94.70;;;;;;21089830;28;20214;-61
2022/06/05 16:47:58;;;;;;;2.63;1.77;;;23.60;94.40;;;;;;21091897;28;20602;-64
2022/06/05 16:58:06;;;;;;;1.40;1.30;;;23.50;94.20;;;;;;21090908;28;20206;-62
2022/06/05 17:08:13;;;;;;;6.63;1.97;;;23.30;93.80;;;;;;21089392;28;20238;-62
2022/06/05 17:18:35;;;;;;;2.13;1.60;;;23.00;94.10;;;;;;21088733;28;20256;-63
2022/06/05 17:28:56;;;;;;;3.77;1.93;;;22.80;94.30;;;;;;21087566;28;20238;-63
2022/06/05 17:39:13;;;;;;;3.70;1.60;;;22.70;94.80;;;;;;21086835;28;20210;-65
2022/06/05 17:49:26;;;;;;;2.37;1.57;;;22.60;95.20;;;;;;21067655;28;20230;-64
2022/06/05 17:59:34;;;;;;;2.37;1.77;;;22.50;95.50;;;;;;21086214;28;20722;-71
2022/06/05 18:09:36;;;;;;;2.00;1.80;;;22.30;95.80;;;;;;21084105;28;20230;-70
2022/06/05 18:19:42;;;;;;;5.20;1.87;;;22.20;96.20;;;;;;21083331;28;20202;-70
2022/06/05 18:30:26;;;;;;;2.40;1.60;;;22.10;96.60;;;;;;21083331;28;20241;-69
2022/06/05 18:40:36;;;;;;;3.37;1.83;;;22.00;97.00;;;;;;21062806;28;22251;-65
2022/06/05 18:50:41;;;;;;;2.27;1.70;;;21.90;97.40;;;;;;21081943;28;20209;-69
2022/06/05 19:00:43;;;;;;;1.70;1.60;;;21.70;97.60;;;;;;21062060;28;20328;-68
2022/06/05 19:10:45;;;;;;;3.93;1.67;;;21.70;97.90;;;;;;21080600;28;20240;-70
2022/06/05 19:21:14;;;;;;;2.17;1.73;;;21.60;98.10;;;;;;21079721;28;20697;-70
2022/06/05 19:31:25;;;;;;;6.23;1.90;;;21.40;98.30;;;;;;21079060;28;20259;-65
2022/06/05 19:41:27;;;;;;;2.73;1.90;;;21.30;98.50;;;;;;21078960;28;20281;-66
2022/06/05 19:51:37;;;;;;;2.10;1.77;;;21.10;98.80;;;;;;21078246;28;20572;-64
2022/06/05 20:02:00;;;;;;;4.40;1.80;;;21.00;99.20;;;;;;21078183;28;20570;-67
2022/06/05 20:12:25;;;;;;;2.10;1.50;;;20.80;98.90;;;;;;21089497;28;20208;-65
2022/06/05 20:22:35;;;;;;;4.77;1.63;;;20.50;98.90;;;;;;21093605;28;20240;-64
2022/06/05 20:32:45;;;;;;;1.87;1.70;;;20.30;99.00;;;;;;21092617;28;20230;-66
2022/06/05 20:42:55;;;;;;;3.17;2.30;;;20.10;99.10;;;;;;21093123;28;20242;-63
2022/06/05 20:53:42;;;;;;;2.10;1.70;;;20.00;99.40;;;;;;21093239;28;20235;-63
2022/06/05 21:25:00;;;;;;;6.37;1.80;;;19.90;99.50;;;;;;21087555;28;20304;-63
2022/06/05 21:35:18;;;;;;;3.40;1.70;;;19.80;99.60;;;;;;21087907;28;20600;-63
2022/06/05 21:45:23;;;;;;;3.73;1.60;;;19.70;99.60;;;;;;21087361;28;20288;-66
2022/06/05 21:55:32;;;;;;;6.13;2.00;;;19.70;99.60;;;;;;21086781;28;20207;-65
2022/06/05 22:05:34;;;;;;;1.70;1.40;;;19.60;99.50;;;;;;21085543;28;20239;-68
2022/06/05 22:15:37;;;;;;;2.30;1.30;;;19.50;99.50;;;;;;21084698;28;20204;-71
2022/06/05 22:25:41;;;;;;;1.20;1.10;;;19.40;99.30;;;;;;21084050;28;20487;-66
2022/06/05 22:35:42;;;;;;;2.67;1.20;;;19.30;99.00;;;;;;21083046;28;20648;-67
2022/06/05 22:45:44;;;;;;;2.63;1.23;;;19.30;98.90;;;;;;21082358;28;20286;-68
2022/06/05 22:55:46;;;;;;;2.07;1.40;;;19.30;98.80;;;;;;21082196;28;20611;-65
2022/06/05 23:05:48;;;;;;;1.43;1.33;;;19.20;98.70;;;;;;21080821;28;20248;-70
2022/06/05 23:15:50;;;;;;;5.60;1.43;;;19.20;98.60;;;;;;21080164;28;20207;-67
2022/06/05 23:25:52;;;;;;;1.70;1.30;;;19.20;98.50;;;;;;21079750;28;20263;-64
2022/06/05 23:36:06;;;;;;;4.37;1.47;;;19.20;98.30;;;;;;21079115;28;20204;-66
2022/06/05 23:46:09;;;;;;;2.80;1.40;;;19.10;98.20;;;;;;21078028;28;20750;-68
2022/06/05 23:56:17;;;;;;;2.23;1.50;;;19.10;98.10;;;;;;21078499;28;20272;-63
